createdAt,value
2023-01-13T00:04:07.340Z,68.5
2023-01-13T00:14:07.401Z,68.5
2023-01-13T00:24:07.326Z,69
2023-01-13T00:34:07.389Z,69.5
2023-01-13T00:44:07.312Z,69.5
2023-01-13T00:54:07.384Z,70
2023-01-13T01:04:07.309Z,70.5
2023-01-13T01:14:07.403Z,70
2023-01-13T01:24:07.306Z,71
2023-01-13T01:34:07.392Z,71
2023-01-13T01:44:07.611Z,71.5
2023-01-13T01:54:07.388Z,71.5
2023-01-13T02:04:07.504Z,71.5
2023-01-13T02:14:07.373Z,72
2023-01-13T02:24:07.497Z,72
2023-01-13T02:34:07.400Z,72
2023-01-13T02:44:07.510Z,72
2023-01-13T02:54:07.567Z,72
2023-01-13T03:04:07.493Z,72
2023-01-13T03:14:07.561Z,72.5
2023-01-13T03:24:07.517Z,72.5
2023-01-13T03:34:07.593Z,72.5
2023-01-13T03:44:07.481Z,72.5
2023-01-13T03:54:07.565Z,72.5
2023-01-13T04:04:07.608Z,73
2023-01-13T04:14:07.565Z,73
2023-01-13T04:24:07.681Z,73
2023-01-13T04:34:07.558Z,73
2023-01-13T04:44:07.667Z,73
2023-01-13T04:54:07.543Z,73.5
2023-01-13T05:04:07.678Z,73.5
2023-01-13T05:14:07.540Z,68
2023-01-13T05:24:07.673Z,60.5
2023-01-13T05:34:07.576Z,63
2023-01-13T05:44:07.701Z,65.5
2023-01-13T05:54:07.767Z,67
2023-01-13T06:04:07.718Z,68.5
2023-01-13T06:14:07.761Z,62.5
2023-01-13T06:24:07.667Z,58
2023-01-13T06:34:07.727Z,61
2023-01-13T06:44:07.664Z,63.5
2023-01-13T06:54:07.763Z,66
2023-01-13T07:04:07.663Z,67.5
2023-01-13T07:14:07.717Z,62
2023-01-13T07:24:07.843Z,58
2023-01-13T07:34:07.725Z,61
2023-01-13T07:44:07.867Z,64
2023-01-13T07:54:07.715Z,66
2023-01-13T08:04:07.848Z,58
2023-01-13T08:14:07.721Z,56.5
2023-01-13T08:24:07.855Z,59.5
2023-01-13T08:34:07.728Z,62
2023-01-13T08:44:07.842Z,64.5
2023-01-13T08:54:07.935Z,66.5
2023-01-13T09:04:07.888Z,67.5
2023-01-13T09:14:07.903Z,69
2023-01-13T09:24:07.829Z,69.5
2023-01-13T09:34:07.901Z,70.5
2023-01-13T09:44:07.825Z,71
2023-01-13T09:54:07.943Z,71.5
2023-01-13T10:04:09.178Z,72
2023-01-13T10:14:08.024Z,72.5
2023-01-13T10:24:08.084Z,72.5
2023-01-13T10:34:07.929Z,73
2023-01-13T10:44:09.680Z,73.5
2023-01-13T10:54:07.952Z,73.5
2023-01-13T11:04:08.101Z,74
2023-01-13T11:14:09.277Z,74
2023-01-13T11:24:08.053Z,74
2023-01-13T11:34:07.952Z,74
2023-01-13T11:44:08.089Z,74
2023-01-13T11:54:08.117Z,74.5
2023-01-13T12:04:08.047Z,74
2023-01-13T12:14:08.092Z,74
2023-01-13T12:24:08.004Z,75
2023-01-13T12:34:08.087Z,75
2023-01-13T12:44:08.018Z,74
2023-01-13T12:54:08.095Z,74
2023-01-13T13:04:07.997Z,73
2023-01-13T13:14:08.072Z,68
2023-01-13T13:24:08.194Z,69
2023-01-13T13:34:08.066Z,71.5
2023-01-13T13:44:08.218Z,73
2023-01-13T13:54:08.054Z,73
2023-01-13T14:04:08.172Z,73.5
2023-01-13T14:14:08.040Z,73
2023-01-13T14:24:08.129Z,66.5
2023-01-13T14:34:31.578Z,66
2023-01-13T14:44:08.117Z,67.5
2023-01-13T14:54:08.180Z,70
2023-01-13T15:04:08.121Z,71.5
2023-01-13T15:14:08.179Z,72
2023-01-13T15:24:08.104Z,72.5
2023-01-13T15:34:08.168Z,72.5
2023-01-13T15:44:08.111Z,73
2023-01-13T15:54:08.153Z,73
2023-01-13T16:04:08.289Z,73
2023-01-13T16:14:08.181Z,73
2023-01-13T16:24:08.312Z,73
2023-01-13T16:34:08.187Z,73.5
2023-01-13T16:44:08.330Z,73.5
2023-01-13T16:54:08.221Z,73.5
2023-01-13T17:04:08.362Z,73.5
2023-01-13T17:14:18.047Z,73.5
2023-01-13T17:24:08.353Z,73.5
2023-01-13T17:34:08.409Z,73.5
2023-01-13T17:44:08.373Z,73.5
2023-01-13T17:54:08.432Z,73.5
2023-01-13T18:04:08.355Z,74
2023-01-13T18:14:08.392Z,66
2023-01-13T18:24:08.328Z,59
2023-01-13T18:34:08.401Z,61.5
2023-01-13T18:44:08.556Z,64
2023-01-13T18:54:08.409Z,66
2023-01-13T19:04:08.592Z,56
2023-01-13T19:14:08.625Z,58
2023-01-13T19:24:08.541Z,61
2023-01-13T19:34:08.641Z,63.5
2023-01-13T19:44:08.754Z,65.5
2023-01-13T19:54:08.600Z,67
2023-01-13T20:04:08.644Z,61
2023-01-13T20:14:08.640Z,55.5
2023-01-13T20:24:08.789Z,58.5
2023-01-13T20:34:08.430Z,61.5
2023-01-13T20:44:08.779Z,64
2023-01-13T20:54:09.055Z,65.5
2023-01-13T21:04:08.801Z,67
2023-01-13T21:14:08.652Z,68
2023-01-13T21:24:08.701Z,69
2023-01-13T21:34:09.120Z,69.5
2023-01-13T21:44:08.909Z,70
2023-01-13T21:54:09.183Z,70.5
2023-01-13T22:04:09.101Z,70.5
2023-01-13T22:14:08.801Z,71
2023-01-13T22:24:08.944Z,71.5
2023-01-13T22:34:08.781Z,71.5
2023-01-13T22:44:08.897Z,71.5
2023-01-13T22:54:08.802Z,71.5
2023-01-13T23:04:08.867Z,72
2023-01-13T23:14:08.716Z,72
2023-01-13T23:24:08.852Z,72
2023-01-13T23:34:08.679Z,72
2023-01-13T23:44:09.075Z,72.5
2023-01-13T23:54:08.981Z,72.5
